Time;durP1;ratioP1;P1;durP2;ratioP2;P2;SDS_P1;SDS_P2;PMS_P1;PMS_P2;Temp;Humidity;BMP_temperature;BMP_pressure;BME280_temperature;BME280_humidity;BME280_pressure;Samples;Min_cycle;Max_cycle;Signal;HPM_P1;HPM_P2
2020/12/17 00:01:50;;;;;;;;;;;18.50;42.00;;;;;;491672;240;1050;-53
2020/12/17 00:03:52;;;;;;;;;;;18.50;42.00;;;;;;491759;240;1114;-53
2020/12/17 00:05:53;;;;;;;;;;;18.50;41.90;;;;;;491731;240;1091;-53
2020/12/17 00:07:54;;;;;;;;;;;18.50;41.90;;;;;;491732;240;1201;-53
2020/12/17 00:09:56;;;;;;;;;;;18.50;41.90;;;;;;491614;240;1182;-53
2020/12/17 00:11:57;;;;;;;;;;;18.60;41.90;;;;;;491665;240;2176;-53
2020/12/17 00:13:58;;;;;;;;;;;18.50;41.80;;;;;;491547;240;1205;-53
2020/12/17 00:15:59;;;;;;;;;;;18.60;41.80;;;;;;491511;240;1109;-53
2020/12/17 00:18:01;;;;;;;;;;;18.60;41.80;;;;;;491676;240;1106;-53
2020/12/17 00:20:02;;;;;;;;;;;18.60;41.70;;;;;;491810;240;1189;-54
2020/12/17 00:22:03;;;;;;;;;;;18.60;41.70;;;;;;491686;240;1118;-53
2020/12/17 00:24:04;;;;;;;;;;;18.70;41.70;;;;;;491666;240;1372;-53
2020/12/17 00:26:06;;;;;;;;;;;18.70;41.70;;;;;;491636;240;1260;-53
2020/12/17 00:28:07;;;;;;;;;;;18.70;41.70;;;;;;491604;240;1167;-53
2020/12/17 00:30:09;;;;;;;;;;;18.70;41.70;;;;;;491646;240;1145;-53
2020/12/17 00:32:10;;;;;;;;;;;18.70;41.60;;;;;;491592;240;2137;-53
2020/12/17 00:34:11;;;;;;;;;;;18.80;41.60;;;;;;491580;240;1180;-54
2020/12/17 00:36:12;;;;;;;;;;;18.70;41.50;;;;;;491618;240;1242;-54
2020/12/17 00:38:13;;;;;;;;;;;18.80;41.60;;;;;;491571;240;1104;-53
2020/12/17 00:40:15;;;;;;;;;;;18.80;41.50;;;;;;491674;240;957;-53
2020/12/17 00:42:16;;;;;;;;;;;18.80;41.50;;;;;;491599;240;1169;-53
2020/12/17 00:44:17;;;;;;;;;;;18.80;41.50;;;;;;491772;240;1181;-53
2020/12/17 00:46:19;;;;;;;;;;;18.80;41.50;;;;;;491616;240;1299;-54
2020/12/17 00:48:20;;;;;;;;;;;18.80;41.40;;;;;;491707;240;1170;-53
2020/12/17 00:50:21;;;;;;;;;;;18.90;41.50;;;;;;491598;240;1349;-54
2020/12/17 00:52:22;;;;;;;;;;;18.90;41.40;;;;;;491611;240;2137;-53
2020/12/17 00:54:24;;;;;;;;;;;18.90;41.40;;;;;;491604;240;1248;-53
2020/12/17 00:56:25;;;;;;;;;;;18.90;41.40;;;;;;491641;240;1199;-52
2020/12/17 00:58:26;;;;;;;;;;;18.90;41.40;;;;;;491804;240;1108;-54
2020/12/17 01:00:27;;;;;;;;;;;18.90;41.30;;;;;;491649;240;1179;-53
2020/12/17 01:02:29;;;;;;;;;;;19.00;41.40;;;;;;491684;240;1143;-53
2020/12/17 01:04:30;;;;;;;;;;;19.00;41.30;;;;;;491634;240;1212;-53
2020/12/17 01:06:31;;;;;;;;;;;19.00;41.30;;;;;;491633;240;1329;-54
2020/12/17 01:08:32;;;;;;;;;;;19.00;41.30;;;;;;491619;240;969;-53
2020/12/17 01:10:34;;;;;;;;;;;19.00;41.30;;;;;;491570;240;1068;-53
2020/12/17 01:12:35;;;;;;;;;;;19.00;41.20;;;;;;491578;240;2140;-53
2020/12/17 01:14:36;;;;;;;;;;;19.00;41.20;;;;;;491656;240;1151;-53
2020/12/17 01:16:38;;;;;;;;;;;19.00;39.90;;;;;;491685;240;965;-53
2020/12/17 01:18:39;;;;;;;;;;;19.00;41.20;;;;;;491751;240;1095;-53
2020/12/17 01:20:40;;;;;;;;;;;19.10;41.20;;;;;;491665;240;956;-53
2020/12/17 01:22:42;;;;;;;;;;;19.10;41.20;;;;;;491595;240;1069;-53
2020/12/17 01:24:43;;;;;;;;;;;19.10;41.20;;;;;;491726;240;1033;-53
2020/12/17 01:26:44;;;;;;;;;;;19.10;41.10;;;;;;491727;240;1058;-53
2020/12/17 01:28:45;;;;;;;;;;;19.10;41.10;;;;;;491670;240;970;-53
2020/12/17 01:30:47;;;;;;;;;;;19.10;41.10;;;;;;491610;240;1132;-54
2020/12/17 01:32:48;;;;;;;;;;;19.10;41.10;;;;;;491782;240;2137;-53
2020/12/17 01:34:49;;;;;;;;;;;19.20;41.10;;;;;;491600;240;1066;-53
2020/12/17 01:36:51;;;;;;;;;;;19.10;41.00;;;;;;491614;240;1107;-53
2020/12/17 01:38:52;;;;;;;;;;;19.20;41.10;;;;;;491652;240;977;-53
2020/12/17 01:40:53;;;;;;;;;;;19.20;41.10;;;;;;491626;240;1281;-53
2020/12/17 01:42:54;;;;;;;;;;;19.20;41.00;;;;;;491598;240;1063;-53
2020/12/17 01:44:56;;;;;;;;;;;19.20;41.00;;;;;;491585;240;1308;-54
2020/12/17 01:46:57;;;;;;;;;;;19.20;41.00;;;;;;491653;240;1083;-53
2020/12/17 01:48:58;;;;;;;;;;;19.20;41.00;;;;;;491692;240;1084;-54
2020/12/17 01:51:00;;;;;;;;;;;19.20;41.00;;;;;;491569;240;1337;-54
2020/12/17 01:53:01;;;;;;;;;;;19.20;40.90;;;;;;491614;240;2153;-53
2020/12/17 01:55:02;;;;;;;;;;;19.30;41.00;;;;;;491548;240;1358;-53
2020/12/17 01:57:04;;;;;;;;;;;19.30;41.00;;;;;;491598;240;1130;-53
2020/12/17 01:59:05;;;;;;;;;;;19.30;40.90;;;;;;491603;240;1048;-53
2020/12/17 02:01:06;;;;;;;;;;;19.30;40.90;;;;;;491528;238;1360;-53
2020/12/17 02:03:08;;;;;;;;;;;19.30;40.90;;;;;;491589;240;997;-53
2020/12/17 02:05:09;;;;;;;;;;;19.30;40.90;;;;;;491562;240;1077;-53
2020/12/17 02:07:10;;;;;;;;;;;19.30;40.90;;;;;;491581;240;1126;-54
2020/12/17 02:09:11;;;;;;;;;;;19.30;40.90;;;;;;491788;240;1134;-53
2020/12/17 02:11:13;;;;;;;;;;;19.30;40.90;;;;;;491702;240;1224;-53
2020/12/17 02:13:14;;;;;;;;;;;19.30;40.80;;;;;;491565;240;2252;-53
2020/12/17 02:15:15;;;;;;;;;;;19.40;40.90;;;;;;491683;240;1174;-53
2020/12/17 02:17:17;;;;;;;;;;;19.30;40.80;;;;;;491661;240;1189;-53
2020/12/17 02:19:18;;;;;;;;;;;19.40;40.80;;;;;;491704;240;1040;-53
2020/12/17 02:21:19;;;;;;;;;;;19.40;40.80;;;;;;491768;240;982;-53
2020/12/17 02:23:20;;;;;;;;;;;19.40;40.80;;;;;;491658;240;1159;-53
2020/12/17 02:25:22;;;;;;;;;;;19.40;40.80;;;;;;491727;240;1105;-53
2020/12/17 02:27:23;;;;;;;;;;;19.40;40.80;;;;;;491670;240;1070;-53
2020/12/17 02:29:25;;;;;;;;;;;19.40;40.80;;;;;;491595;240;980;-53
2020/12/17 02:31:26;;;;;;;;;;;19.40;40.80;;;;;;491540;240;1157;-53
2020/12/17 02:33:27;;;;;;;;;;;19.40;40.80;;;;;;491628;240;2128;-53
2020/12/17 02:35:29;;;;;;;;;;;19.40;40.70;;;;;;491593;240;994;-53
2020/12/17 02:37:30;;;;;;;;;;;19.50;40.70;;;;;;491656;240;1082;-54
2020/12/17 02:39:33;;;;;;;;;;;19.50;40.70;;;;;;491534;240;1223;-53
2020/12/17 02:41:32;;;;;;;;;;;19.50;39.40;;;;;;491533;241;1357;-53
2020/12/17 02:43:34;;;;;;;;;;;19.50;40.70;;;;;;491633;240;982;-52
2020/12/17 02:45:35;;;;;;;;;;;19.50;40.70;;;;;;491680;240;1232;-53
2020/12/17 02:47:36;;;;;;;;;;;19.50;40.70;;;;;;491738;240;1053;-53
2020/12/17 02:49:38;;;;;;;;;;;19.50;40.70;;;;;;491754;240;1031;-53
2020/12/17 02:51:39;;;;;;;;;;;19.50;40.70;;;;;;491598;240;963;-53
2020/12/17 02:53:40;;;;;;;;;;;19.50;40.70;;;;;;491638;240;2152;-53
2020/12/17 02:55:41;;;;;;;;;;;19.50;40.60;;;;;;491700;240;1020;-53
2020/12/17 02:57:43;;;;;;;;;;;19.50;40.60;;;;;;491603;240;1088;-53
2020/12/17 02:59:44;;;;;;;;;;;19.50;40.60;;;;;;491619;240;1058;-53
2020/12/17 03:01:45;;;;;;;;;;;19.50;40.60;;;;;;491654;240;1213;-52
2020/12/17 03:03:46;;;;;;;;;;;19.60;40.70;;;;;;491645;240;1072;-53
2020/12/17 03:05:48;;;;;;;;;;;19.60;40.60;;;;;;491634;240;1013;-53
2020/12/17 03:07:49;;;;;;;;;;;19.60;40.70;;;;;;491654;240;1018;-53
2020/12/17 03:09:50;;;;;;;;;;;19.60;40.60;;;;;;491697;240;1017;-53
2020/12/17 03:11:52;;;;;;;;;;;19.60;40.70;;;;;;491649;240;1018;-53
2020/12/17 03:13:53;;;;;;;;;;;19.60;40.60;;;;;;491635;240;2188;-53
2020/12/17 03:15:54;;;;;;;;;;;19.60;40.60;;;;;;491600;240;1185;-54
2020/12/17 03:17:55;;;;;;;;;;;19.60;40.60;;;;;;491602;240;1085;-53
2020/12/17 03:19:57;;;;;;;;;;;19.60;40.60;;;;;;491612;240;985;-53
2020/12/17 03:21:58;;;;;;;;;;;19.60;40.60;;;;;;491664;240;1039;-53
2020/12/17 03:23:59;;;;;;;;;;;19.60;40.60;;;;;;491735;240;1101;-54
2020/12/17 03:26:00;;;;;;;;;;;19.60;40.60;;;;;;491665;240;1032;-54
2020/12/17 03:28:02;;;;;;;;;;;19.60;40.50;;;;;;491634;240;1036;-54
2020/12/17 03:30:03;;;;;;;;;;;19.60;40.50;;;;;;491602;240;1046;-53
2020/12/17 03:32:04;;;;;;;;;;;19.60;40.50;;;;;;491607;240;1685;-53
2020/12/17 03:34:06;;;;;;;;;;;19.60;40.50;;;;;;491663;240;2176;-53
2020/12/17 03:36:07;;;;;;;;;;;19.70;40.60;;;;;;491662;240;1038;-53
2020/12/17 03:38:08;;;;;;;;;;;19.70;40.50;;;;;;491624;240;1047;-53
2020/12/17 03:40:09;;;;;;;;;;;19.70;40.50;;;;;;491621;240;974;-53
2020/12/17 03:42:11;;;;;;;;;;;19.70;40.50;;;;;;491685;240;1233;-53
2020/12/17 03:44:12;;;;;;;;;;;19.70;40.50;;;;;;491664;240;1057;-54
2020/12/17 03:46:13;;;;;;;;;;;19.70;40.50;;;;;;491809;240;1187;-53
2020/12/17 03:48:15;;;;;;;;;;;19.70;40.40;;;;;;491624;240;1314;-53
2020/12/17 03:50:16;;;;;;;;;;;19.70;39.10;;;;;;491793;240;1322;-53
2020/12/17 03:52:17;;;;;;;;;;;19.70;40.50;;;;;;491592;240;2192;-53
2020/12/17 03:54:18;;;;;;;;;;;19.80;40.60;;;;;;491661;240;1085;-53
2020/12/17 03:56:20;;;;;;;;;;;19.80;40.50;;;;;;491683;240;947;-53
2020/12/17 03:58:21;;;;;;;;;;;19.90;40.30;;;;;;491613;240;1085;-53
2020/12/17 04:00:23;;;;;;;;;;;19.90;40.20;;;;;;491772;240;929;-53
2020/12/17 04:02:24;;;;;;;;;;;19.90;40.30;;;;;;491685;240;1158;-53
2020/12/17 04:04:25;;;;;;;;;;;19.80;40.30;;;;;;491889;240;1077;-53
2020/12/17 04:06:26;;;;;;;;;;;19.80;40.40;;;;;;491643;240;976;-53
2020/12/17 04:08:28;;;;;;;;;;;19.70;40.50;;;;;;491850;240;1048;-54
2020/12/17 04:10:29;;;;;;;;;;;19.70;40.50;;;;;;491599;240;1116;-53
2020/12/17 04:12:30;;;;;;;;;;;19.70;40.50;;;;;;491604;240;2179;-53
2020/12/17 04:14:31;;;;;;;;;;;19.70;39.30;;;;;;491833;240;1039;-53
2020/12/17 04:16:33;;;;;;;;;;;19.70;40.70;;;;;;491591;240;1147;-53
2020/12/17 04:18:34;;;;;;;;;;;19.60;40.70;;;;;;491571;240;1057;-53
2020/12/17 04:20:35;;;;;;;;;;;19.60;40.70;;;;;;491549;240;1045;-53
2020/12/17 04:22:37;;;;;;;;;;;19.50;40.70;;;;;;491645;240;1119;-53
2020/12/17 04:24:38;;;;;;;;;;;19.50;39.50;;;;;;491599;240;1015;-53
2020/12/17 04:26:39;;;;;;;;;;;19.50;40.90;;;;;;491617;240;966;-53
2020/12/17 04:28:40;;;;;;;;;;;19.50;40.90;;;;;;491629;240;1181;-53
2020/12/17 04:30:42;;;;;;;;;;;19.50;40.90;;;;;;491712;240;1056;-53
2020/12/17 04:32:43;;;;;;;;;;;19.40;40.90;;;;;;491602;240;2145;-53
2020/12/17 04:34:44;;;;;;;;;;;19.40;41.00;;;;;;491895;240;1125;-53
2020/12/17 04:36:45;;;;;;;;;;;19.40;41.10;;;;;;491599;240;1135;-53
2020/12/17 04:38:47;;;;;;;;;;;19.40;41.20;;;;;;491626;240;1084;-53
2020/12/17 04:40:48;;;;;;;;;;;19.30;41.20;;;;;;491619;240;1103;-53
2020/12/17 04:42:49;;;;;;;;;;;19.30;41.20;;;;;;491615;240;1020;-53
2020/12/17 04:44:51;;;;;;;;;;;19.30;41.20;;;;;;491823;240;1073;-53
2020/12/17 04:46:52;;;;;;;;;;;19.30;41.30;;;;;;491770;240;1183;-53
2020/12/17 04:48:53;;;;;;;;;;;19.30;41.30;;;;;;491635;240;1030;-53
2020/12/17 04:50:54;;;;;;;;;;;19.30;41.40;;;;;;491686;240;1051;-53
2020/12/17 04:52:56;;;;;;;;;;;19.20;41.30;;;;;;491761;240;2137;-53
2020/12/17 04:54:57;;;;;;;;;;;19.20;41.40;;;;;;491606;240;1044;-53
2020/12/17 04:56:58;;;;;;;;;;;19.10;41.50;;;;;;491539;240;1042;-53
2020/12/17 04:59:00;;;;;;;;;;;19.10;41.50;;;;;;491815;240;1050;-53
2020/12/17 05:01:01;;;;;;;;;;;19.10;41.50;;;;;;491690;240;1210;-53
2020/12/17 05:03:02;;;;;;;;;;;19.10;41.60;;;;;;491696;240;1156;-53
2020/12/17 05:05:04;;;;;;;;;;;19.00;41.60;;;;;;491567;240;1052;-53
2020/12/17 05:07:05;;;;;;;;;;;19.00;41.70;;;;;;491508;240;1051;-53
2020/12/17 05:09:07;;;;;;;;;;;19.00;41.70;;;;;;491621;240;1058;-53
2020/12/17 05:11:08;;;;;;;;;;;19.00;41.70;;;;;;491562;240;1189;-53
2020/12/17 05:13:09;;;;;;;;;;;18.90;41.70;;;;;;491695;240;2180;-53
2020/12/17 05:15:10;;;;;;;;;;;19.00;41.80;;;;;;491711;240;1057;-53
2020/12/17 05:17:12;;;;;;;;;;;18.90;41.80;;;;;;491601;240;1193;-53
2020/12/17 05:19:13;;;;;;;;;;;18.90;41.80;;;;;;491600;240;1072;-53
2020/12/17 05:21:14;;;;;;;;;;;18.90;41.80;;;;;;491614;240;1297;-53
2020/12/17 05:23:16;;;;;;;;;;;18.90;41.80;;;;;;491599;240;1079;-53
2020/12/17 05:25:17;;;;;;;;;;;18.90;41.90;;;;;;491587;240;1372;-53
2020/12/17 05:27:18;;;;;;;;;;;18.90;41.90;;;;;;491757;240;1038;-53
2020/12/17 05:29:19;;;;;;;;;;;18.80;41.90;;;;;;491590;240;1125;-53
2020/12/17 05:31:21;;;;;;;;;;;18.80;41.90;;;;;;491574;240;1195;-53
2020/12/17 05:33:22;;;;;;;;;;;18.80;41.90;;;;;;491654;240;2196;-54
2020/12/17 05:35:24;;;;;;;;;;;18.80;41.90;;;;;;491565;240;1416;-53
2020/12/17 05:37:25;;;;;;;;;;;18.80;41.90;;;;;;491708;240;1077;-53
2020/12/17 05:39:26;;;;;;;;;;;18.80;41.90;;;;;;491641;240;1057;-53
2020/12/17 05:41:28;;;;;;;;;;;18.80;41.90;;;;;;491558;240;1227;-53
2020/12/17 05:43:29;;;;;;;;;;;18.80;40.60;;;;;;491522;240;1104;-54
2020/12/17 05:45:30;;;;;;;;;;;18.80;41.90;;;;;;491439;240;1212;-53
2020/12/17 05:47:31;;;;;;;;;;;18.80;41.90;;;;;;491491;240;1169;-53
2020/12/17 05:49:33;;;;;;;;;;;18.80;41.90;;;;;;491474;240;1037;-53
2020/12/17 05:51:34;;;;;;;;;;;18.80;41.90;;;;;;491448;240;1092;-53
2020/12/17 05:53:35;;;;;;;;;;;18.80;41.90;;;;;;491635;240;2133;-53
2020/12/17 05:55:36;;;;;;;;;;;18.80;41.90;;;;;;491495;240;1414;-53
2020/12/17 05:57:38;;;;;;;;;;;18.80;41.90;;;;;;491581;240;1231;-53
2020/12/17 05:59:39;;;;;;;;;;;18.80;42.00;;;;;;491339;240;1157;-53
2020/12/17 06:01:40;;;;;;;;;;;18.80;42.00;;;;;;491177;240;1224;-53
2020/12/17 06:03:42;;;;;;;;;;;18.70;42.00;;;;;;490994;240;1828;-52
2020/12/17 06:05:43;;;;;;;;;;;18.70;42.00;;;;;;491122;240;1376;-53
2020/12/17 06:07:45;;;;;;;;;;;18.70;40.80;;;;;;491036;240;1217;-53
2020/12/17 06:09:46;;;;;;;;;;;18.70;42.10;;;;;;491091;240;1203;-53
2020/12/17 06:11:47;;;;;;;;;;;18.70;42.10;;;;;;491182;240;1133;-53
2020/12/17 06:13:48;;;;;;;;;;;18.70;42.10;;;;;;491175;240;2180;-53
2020/12/17 06:15:50;;;;;;;;;;;18.70;42.10;;;;;;491140;240;1203;-53
2020/12/17 06:17:51;;;;;;;;;;;18.70;42.10;;;;;;491030;240;1234;-53
2020/12/17 06:19:52;;;;;;;;;;;18.70;42.10;;;;;;490996;240;1287;-53
2020/12/17 06:21:53;;;;;;;;;;;18.70;42.10;;;;;;491155;240;1093;-53
2020/12/17 06:23:55;;;;;;;;;;;18.70;42.10;;;;;;491354;240;992;-53
2020/12/17 06:25:56;;;;;;;;;;;18.70;42.10;;;;;;491548;240;1091;-53
2020/12/17 06:27:57;;;;;;;;;;;18.60;42.00;;;;;;491353;240;1165;-53
2020/12/17 06:29:58;;;;;;;;;;;18.60;42.00;;;;;;491358;240;1066;-53
2020/12/17 06:32:00;;;;;;;;;;;18.70;40.80;;;;;;491386;240;1327;-53
2020/12/17 06:34:01;;;;;;;;;;;18.70;42.10;;;;;;491415;240;2157;-53
2020/12/17 06:36:03;;;;;;;;;;;18.60;42.00;;;;;;491403;240;1052;-53
2020/12/17 06:38:04;;;;;;;;;;;18.70;42.00;;;;;;491392;240;1234;-53
2020/12/17 06:40:05;;;;;;;;;;;18.70;42.00;;;;;;491385;240;1084;-53
2020/12/17 06:42:07;;;;;;;;;;;18.60;41.90;;;;;;491248;240;1393;-53
2020/12/17 06:44:08;;;;;;;;;;;18.70;42.00;;;;;;491396;240;1155;-53
2020/12/17 06:46:09;;;;;;;;;;;18.70;42.00;;;;;;491419;240;1071;-53
2020/12/17 06:48:10;;;;;;;;;;;18.60;42.00;;;;;;491472;238;1368;-53
2020/12/17 06:50:12;;;;;;;;;;;18.60;42.00;;;;;;491387;240;1121;-53
2020/12/17 06:52:13;;;;;;;;;;;18.60;42.00;;;;;;491324;240;1080;-53
2020/12/17 06:54:14;;;;;;;;;;;18.70;42.00;;;;;;491225;240;2187;-53
2020/12/17 06:56:15;;;;;;;;;;;18.60;42.00;;;;;;491196;240;1068;-53
2020/12/17 06:58:17;;;;;;;;;;;18.60;42.00;;;;;;491331;240;1370;-53
2020/12/17 07:00:19;;;;;;;;;;;18.60;42.00;;;;;;491362;240;1020;-53
2020/12/17 07:02:20;;;;;;;;;;;18.60;42.00;;;;;;491208;240;1536;-53
2020/12/17 07:04:21;;;;;;;;;;;18.60;42.00;;;;;;491253;240;1205;-53
2020/12/17 07:06:22;;;;;;;;;;;18.60;42.10;;;;;;491176;240;1191;-53
2020/12/17 07:08:23;;;;;;;;;;;18.60;42.10;;;;;;491423;240;1148;-53
2020/12/17 07:10:24;;;;;;;;;;;18.60;40.70;;;;;;491351;240;1177;-53
2020/12/17 07:12:26;;;;;;;;;;;18.70;42.00;;;;;;491363;240;1103;-53
2020/12/17 07:14:27;;;;;;;;;;;18.60;42.00;;;;;;491358;240;2176;-53
2020/12/17 07:16:28;;;;;;;;;;;18.60;42.00;;;;;;491350;240;1072;-53
2020/12/17 07:18:30;;;;;;;;;;;18.60;42.00;;;;;;491190;240;1179;-53
2020/12/17 07:20:31;;;;;;;;;;;18.60;42.10;;;;;;491186;240;998;-53
2020/12/17 07:22:33;;;;;;;;;;;18.50;42.10;;;;;;491197;240;1056;-53
2020/12/17 07:24:34;;;;;;;;;;;18.50;42.10;;;;;;491170;240;1080;-53
2020/12/17 07:26:35;;;;;;;;;;;18.50;40.80;;;;;;491146;240;1022;-53
2020/12/17 07:28:36;;;;;;;;;;;18.50;40.80;;;;;;491242;240;1017;-53
2020/12/17 07:30:38;;;;;;;;;;;18.50;42.10;;;;;;491131;240;1290;-53
2020/12/17 07:32:39;;;;;;;;;;;18.50;42.20;;;;;;491198;240;1045;-53
2020/12/17 07:34:40;;;;;;;;;;;18.50;42.10;;;;;;491066;240;2192;-53
2020/12/17 07:36:41;;;;;;;;;;;18.50;42.20;;;;;;490988;240;1243;-53
2020/12/17 07:39:04;;;;;;;;;;;18.50;42.20;;;;;;491093;240;1090;-53
2020/12/17 07:41:07;;;;;;;;;;;18.50;42.20;;;;;;490684;241;1341;-53
2020/12/17 07:43:08;;;;;;;;;;;18.50;42.20;;;;;;491233;240;1041;-53
2020/12/17 07:45:09;;;;;;;;;;;18.50;42.20;;;;;;491255;240;1298;-53
2020/12/17 07:47:10;;;;;;;;;;;18.50;42.20;;;;;;491203;240;1278;-53
2020/12/17 07:49:12;;;;;;;;;;;18.50;42.20;;;;;;491256;240;1178;-53
2020/12/17 07:51:13;;;;;;;;;;;18.50;42.20;;;;;;491211;240;1279;-53
2020/12/17 07:53:14;;;;;;;;;;;18.50;42.20;;;;;;491171;240;1058;-53
2020/12/17 07:55:16;;;;;;;;;;;18.50;42.20;;;;;;491164;240;2180;-53
2020/12/17 07:57:17;;;;;;;;;;;18.40;40.90;;;;;;491036;240;1062;-53
2020/12/17 07:59:18;;;;;;;;;;;18.40;42.20;;;;;;491144;240;1030;-53
2020/12/17 08:01:19;;;;;;;;;;;18.40;40.80;;;;;;491069;240;980;-53
2020/12/17 08:03:21;;;;;;;;;;;18.50;42.10;;;;;;490945;240;1079;-53
2020/12/17 08:05:22;;;;;;;;;;;18.50;42.10;;;;;;491025;240;1239;-53
2020/12/17 08:07:23;;;;;;;;;;;18.50;40.60;;;;;;491034;240;1083;-52
2020/12/17 08:09:24;;;;;;;;;;;18.60;41.90;;;;;;490829;240;1051;-53
2020/12/17 08:11:26;;;;;;;;;;;18.50;41.90;;;;;;490725;240;1079;-52
2020/12/17 08:13:27;;;;;;;;;;;18.50;40.70;;;;;;490828;240;1060;-53
2020/12/17 08:15:28;;;;;;;;;;;18.50;40.70;;;;;;490602;240;2136;-53
2020/12/17 08:17:30;;;;;;;;;;;18.50;42.00;;;;;;490766;240;1037;-53
2020/12/17 08:19:31;;;;;;;;;;;18.50;40.80;;;;;;490954;240;1205;-53
2020/12/17 08:21:32;;;;;;;;;;;18.50;42.10;;;;;;490863;240;1104;-53
2020/12/17 08:23:33;;;;;;;;;;;18.50;42.10;;;;;;490936;240;1255;-52
2020/12/17 08:25:35;;;;;;;;;;;18.40;42.10;;;;;;490882;240;1061;-53
2020/12/17 08:27:36;;;;;;;;;;;18.40;40.90;;;;;;490874;240;1350;-53
2020/12/17 08:29:37;;;;;;;;;;;18.40;42.20;;;;;;490844;240;1122;-53
2020/12/17 08:31:39;;;;;;;;;;;18.40;42.20;;;;;;490896;240;1092;-53
2020/12/17 08:33:40;;;;;;;;;;;18.40;42.20;;;;;;491030;240;1008;-53
2020/12/17 08:35:42;;;;;;;;;;;18.40;42.20;;;;;;491082;240;2194;-53
2020/12/17 08:37:43;;;;;;;;;;;18.40;42.20;;;;;;491118;240;1161;-53
2020/12/17 08:39:44;;;;;;;;;;;18.40;41.00;;;;;;491050;240;1356;-53
2020/12/17 08:41:46;;;;;;;;;;;18.40;42.30;;;;;;491057;240;1158;-53
2020/12/17 08:43:47;;;;;;;;;;;18.30;42.30;;;;;;490746;240;1083;-53
2020/12/17 08:45:48;;;;;;;;;;;18.40;42.30;;;;;;490808;240;1212;-53
2020/12/17 08:47:50;;;;;;;;;;;18.30;42.30;;;;;;490922;240;1028;-53
2020/12/17 08:49:51;;;;;;;;;;;18.30;42.30;;;;;;491036;240;1258;-53
2020/12/17 08:51:53;;;;;;;;;;;18.30;42.30;;;;;;490992;240;1254;-53
2020/12/17 08:53:54;;;;;;;;;;;18.40;42.30;;;;;;491144;240;1197;-53
2020/12/17 08:55:55;;;;;;;;;;;18.30;40.90;;;;;;491010;240;1142;-53
2020/12/17 08:57:57;;;;;;;;;;;18.40;42.30;;;;;;490928;240;1175;-53
2020/12/17 08:59:58;;;;;;;;;;;18.40;41.00;;;;;;490843;240;1066;-53
2020/12/17 09:01:59;;;;;;;;;;;18.30;42.20;;;;;;490737;240;1236;-53
2020/12/17 09:04:01;;;;;;;;;;;18.40;42.20;;;;;;491063;240;1021;-53
2020/12/17 09:06:02;;;;;;;;;;;18.40;42.20;;;;;;490997;240;1212;-53
2020/12/17 09:08:03;;;;;;;;;;;18.40;42.20;;;;;;491054;240;1021;-53
2020/12/17 09:10:04;;;;;;;;;;;18.40;40.90;;;;;;490752;240;1051;-53
2020/12/17 09:12:06;;;;;;;;;;;18.40;42.20;;;;;;490656;240;1038;-53
2020/12/17 09:14:07;;;;;;;;;;;18.30;42.10;;;;;;490802;240;2175;-53
2020/12/17 09:16:08;;;;;;;;;;;18.30;42.20;;;;;;490863;240;1019;-54
2020/12/17 09:18:10;;;;;;;;;;;18.30;42.20;;;;;;491042;240;1050;-53
2020/12/17 09:20:11;;;;;;;;;;;18.30;42.30;;;;;;490925;240;1164;-53
2020/12/17 09:22:12;;;;;;;;;;;18.30;42.30;;;;;;490767;240;1013;-53
2020/12/17 09:24:13;;;;;;;;;;;18.40;42.20;;;;;;490759;240;1074;-53
2020/12/17 09:26:15;;;;;;;;;;;18.40;42.20;;;;;;490873;240;1047;-53
2020/12/17 09:28:16;;;;;;;;;;;18.40;42.20;;;;;;491041;240;1021;-53
2020/12/17 09:30:17;;;;;;;;;;;18.40;42.10;;;;;;491031;240;996;-54
2020/12/17 09:32:19;;;;;;;;;;;18.40;42.10;;;;;;490988;240;1126;-53
2020/12/17 09:34:20;;;;;;;;;;;18.40;42.00;;;;;;490849;240;2172;-53
2020/12/17 09:36:22;;;;;;;;;;;18.50;42.00;;;;;;490961;240;1202;-53
2020/12/17 09:38:22;;;;;;;;;;;18.50;42.00;;;;;;490935;240;1500;-53
2020/12/17 09:40:24;;;;;;;;;;;18.50;42.00;;;;;;490991;240;1047;-53
2020/12/17 09:42:25;;;;;;;;;;;18.50;41.90;;;;;;490993;240;1108;-53
2020/12/17 09:44:27;;;;;;;;;;;18.50;41.90;;;;;;490865;240;1100;-53
2020/12/17 09:46:28;;;;;;;;;;;18.50;40.50;;;;;;490861;240;1143;-53
2020/12/17 09:48:29;;;;;;;;;;;18.50;41.80;;;;;;490910;240;1046;-53
2020/12/17 09:50:30;;;;;;;;;;;18.60;40.50;;;;;;490953;240;1283;-53
2020/12/17 09:52:32;;;;;;;;;;;18.60;41.80;;;;;;490963;240;990;-53
2020/12/17 09:54:33;;;;;;;;;;;18.60;40.50;;;;;;491018;240;2191;-53
2020/12/17 09:56:34;;;;;;;;;;;18.60;41.70;;;;;;491070;240;1079;-53
2020/12/17 09:58:35;;;;;;;;;;;18.70;40.40;;;;;;490982;240;1065;-53
2020/12/17 10:00:37;;;;;;;;;;;18.70;41.70;;;;;;490951;240;1067;-53
2020/12/17 10:02:38;;;;;;;;;;;18.70;41.70;;;;;;491060;240;1035;-53
2020/12/17 10:04:39;;;;;;;;;;;18.70;41.60;;;;;;491089;240;1274;-53
2020/12/17 10:06:41;;;;;;;;;;;18.70;41.60;;;;;;491034;240;1149;-53
2020/12/17 10:08:42;;;;;;;;;;;18.80;41.60;;;;;;491203;240;1159;-53
2020/12/17 10:10:44;;;;;;;;;;;18.70;41.50;;;;;;490804;240;1137;-53
2020/12/17 10:12:45;;;;;;;;;;;18.80;41.60;;;;;;490869;240;1076;-53
2020/12/17 10:14:46;;;;;;;;;;;18.80;41.50;;;;;;490853;240;2132;-53
2020/12/17 10:16:47;;;;;;;;;;;18.80;41.50;;;;;;490926;240;1132;-53
2020/12/17 10:18:49;;;;;;;;;;;18.80;41.50;;;;;;491022;240;1031;-53
2020/12/17 10:20:50;;;;;;;;;;;18.80;41.50;;;;;;491012;238;1289;-54
2020/12/17 10:22:51;;;;;;;;;;;18.90;41.50;;;;;;490960;240;1175;-53
2020/12/17 10:24:52;;;;;;;;;;;18.90;41.40;;;;;;490955;240;1115;-53
2020/12/17 10:26:54;;;;;;;;;;;18.90;41.40;;;;;;490945;240;1282;-53
2020/12/17 10:28:55;;;;;;;;;;;18.90;41.40;;;;;;490870;240;1090;-53
2020/12/17 10:30:56;;;;;;;;;;;18.90;41.40;;;;;;490961;240;1303;-53
2020/12/17 10:32:58;;;;;;;;;;;18.90;41.50;;;;;;490906;240;1095;-53
2020/12/17 10:34:59;;;;;;;;;;;18.90;41.50;;;;;;490817;240;2153;-52
2020/12/17 10:37:00;;;;;;;;;;;19.00;40.20;;;;;;490752;240;1195;-53
2020/12/17 10:39:02;;;;;;;;;;;19.00;41.50;;;;;;491066;240;1035;-53
2020/12/17 10:41:03;;;;;;;;;;;19.00;41.50;;;;;;490963;240;1136;-53
2020/12/17 10:43:04;;;;;;;;;;;19.00;41.50;;;;;;491011;240;1114;-53
2020/12/17 10:45:05;;;;;;;;;;;19.00;41.50;;;;;;491021;240;1061;-53
2020/12/17 10:47:07;;;;;;;;;;;19.00;41.50;;;;;;490979;240;1308;-53
2020/12/17 10:49:09;;;;;;;;;;;19.00;41.40;;;;;;491009;240;1197;-53
2020/12/17 10:51:10;;;;;;;;;;;19.10;41.50;;;;;;491019;240;1156;-53
2020/12/17 10:53:12;;;;;;;;;;;19.10;41.50;;;;;;490868;240;1235;-53
2020/12/17 10:55:13;;;;;;;;;;;19.10;41.50;;;;;;490781;240;2136;-52
2020/12/17 10:57:14;;;;;;;;;;;19.10;41.50;;;;;;490612;240;1195;-53
2020/12/17 10:59:16;;;;;;;;;;;19.20;41.40;;;;;;490739;240;1067;-53
2020/12/17 11:01:17;;;;;;;;;;;19.20;41.40;;;;;;491171;240;1177;-53
2020/12/17 11:03:18;;;;;;;;;;;19.20;41.40;;;;;;490915;240;1210;-53
2020/12/17 11:05:20;;;;;;;;;;;19.20;40.00;;;;;;491040;240;1059;-53
2020/12/17 11:07:21;;;;;;;;;;;19.20;41.30;;;;;;490962;240;1210;-52
2020/12/17 11:09:23;;;;;;;;;;;19.20;41.30;;;;;;491029;240;1068;-54
2020/12/17 11:11:24;;;;;;;;;;;19.20;41.20;;;;;;490980;240;1070;-53
2020/12/17 11:13:25;;;;;;;;;;;19.20;39.90;;;;;;490947;240;992;-53
2020/12/17 11:15:26;;;;;;;;;;;19.20;41.10;;;;;;490851;240;2140;-53
2020/12/17 11:17:28;;;;;;;;;;;19.30;41.20;;;;;;490744;240;1282;-52
2020/12/17 11:19:29;;;;;;;;;;;19.30;41.10;;;;;;490792;240;995;-53
2020/12/17 11:21:30;;;;;;;;;;;19.30;41.10;;;;;;490785;240;1160;-53
2020/12/17 11:23:33;;;;;;;;;;;19.30;41.10;;;;;;490980;240;1073;-54
2020/12/17 11:25:36;;;;;;;;;;;19.30;41.00;;;;;;490913;242;1419;-53
2020/12/17 11:27:34;;;;;;;;;;;19.30;41.00;;;;;;490688;241;1314;-53
2020/12/17 11:29:36;;;;;;;;;;;19.30;41.00;;;;;;490974;240;1322;-53
2020/12/17 11:31:37;;;;;;;;;;;19.30;41.00;;;;;;490869;240;1082;-53
2020/12/17 11:33:38;;;;;;;;;;;19.30;41.00;;;;;;490791;240;1193;-53
2020/12/17 11:35:40;;;;;;;;;;;19.30;40.90;;;;;;490888;240;2177;-53
2020/12/17 11:37:41;;;;;;;;;;;19.40;41.00;;;;;;490854;240;1298;-53
2020/12/17 11:39:42;;;;;;;;;;;19.40;41.00;;;;;;490948;240;1046;-53
2020/12/17 11:41:44;;;;;;;;;;;19.40;40.90;;;;;;490920;240;1220;-53
2020/12/17 11:43:45;;;;;;;;;;;19.40;40.90;;;;;;491084;240;1167;-53
2020/12/17 11:45:46;;;;;;;;;;;19.40;40.90;;;;;;490984;240;1103;-53
2020/12/17 11:47:47;;;;;;;;;;;19.40;40.90;;;;;;490884;240;1178;-53
2020/12/17 11:49:49;;;;;;;;;;;19.40;39.50;;;;;;490891;240;1094;-53
2020/12/17 11:51:50;;;;;;;;;;;19.40;40.80;;;;;;490807;240;1136;-53
2020/12/17 11:53:52;;;;;;;;;;;19.40;40.80;;;;;;490823;240;1095;-53
2020/12/17 11:55:53;;;;;;;;;;;19.40;40.80;;;;;;490850;240;2145;-53
2020/12/17 11:57:54;;;;;;;;;;;19.50;40.90;;;;;;490737;240;1119;-53